Time;durP1;ratioP1;P1;durP2;ratioP2;P2;SDS_P1;SDS_P2;PMS_P1;PMS_P2;Temp;Humidity;BMP_temperature;BMP_pressure;BME280_temperature;BME280_humidity;BME280_pressure;Samples;Min_cycle;Max_cycle;Signal;HPM_P1;HPM_P2
2022/06/29 00:00:53;;;;;;;3.87;2.13;;;14.30;99.90;;;;;;4972292;28;20180;-61
2022/06/29 00:03:19;;;;;;;8.50;2.20;;;14.20;99.90;;;;;;4972273;28;20219;-61
2022/06/29 00:05:45;;;;;;;6.90;2.10;;;14.30;99.90;;;;;;4972354;28;20180;-61
2022/06/29 00:08:10;;;;;;;5.87;1.90;;;14.20;99.90;;;;;;4972221;28;20227;-61
2022/06/29 00:10:37;;;;;;;5.30;1.67;;;14.20;99.90;;;;;;4972174;28;20188;-61
2022/06/29 00:13:04;;;;;;;5.75;1.38;;;14.20;99.90;;;;;;4971636;28;20184;-61
2022/06/29 00:15:30;;;;;;;3.67;1.30;;;14.40;99.90;;;;;;4971831;28;20179;-62
2022/06/29 00:17:56;;;;;;;2.13;1.17;;;14.30;99.90;;;;;;4972221;28;20187;-62
2022/06/29 00:20:22;;;;;;;2.08;1.00;;;14.30;99.90;;;;;;4972317;28;20183;-62
2022/06/29 00:22:48;;;;;;;3.37;1.10;;;14.30;99.90;;;;;;4971773;28;20262;-62
2022/06/29 00:25:14;;;;;;;2.75;1.00;;;14.40;99.90;;;;;;4972105;28;20176;-62
2022/06/29 00:27:41;;;;;;;2.00;0.85;;;14.40;99.90;;;;;;4972451;28;20184;-62
2022/06/29 00:30:08;;;;;;;2.10;0.90;;;14.40;99.90;;;;;;4971920;28;20211;-62
2022/06/29 00:32:34;;;;;;;5.07;2.72;;;14.40;99.90;;;;;;4971970;28;20647;-62
2022/06/29 00:35:00;;;;;;;3.00;1.15;;;14.40;99.90;;;;;;4971957;28;20179;-62
2022/06/29 00:37:26;;;;;;;4.22;1.00;;;14.30;99.90;;;;;;4971712;28;20180;-62
2022/06/29 00:39:53;;;;;;;2.13;0.90;;;14.40;99.90;;;;;;4970838;28;20187;-62
2022/06/29 00:42:19;;;;;;;1.57;0.97;;;14.40;99.90;;;;;;4971753;28;20219;-62
2022/06/29 00:44:45;;;;;;;1.53;0.87;;;14.40;99.90;;;;;;4971709;28;20215;-62
2022/06/29 00:47:11;;;;;;;2.28;1.17;;;14.40;99.90;;;;;;4971773;28;20218;-62
2022/06/29 00:49:36;;;;;;;3.47;1.00;;;14.60;99.90;;;;;;4971623;28;20175;-62
2022/06/29 00:52:07;;;;;;;3.00;0.95;;;14.40;99.90;;;;;;4971525;28;20192;-62
2022/06/29 00:54:38;;;;;;;3.42;0.95;;;14.10;99.90;;;;;;4971840;28;20187;-62
2022/06/29 00:57:25;;;;;;;2.13;0.85;;;14.40;99.90;;;;;;4971663;28;20184;-62
2022/06/29 00:59:53;;;;;;;2.53;0.90;;;14.40;99.90;;;;;;4952624;28;20180;-62
2022/06/29 01:02:22;;;;;;;3.30;0.77;;;14.40;99.90;;;;;;4971011;28;20211;-62
2022/06/29 01:04:49;;;;;;;2.25;0.50;;;14.30;99.90;;;;;;4971605;28;20171;-62
2022/06/29 01:07:17;;;;;;;3.30;0.88;;;14.50;99.90;;;;;;4971157;28;20749;-62
2022/06/29 01:09:43;;;;;;;1.88;0.90;;;14.50;99.90;;;;;;4971659;28;20624;-62
2022/06/29 01:12:10;;;;;;;1.77;0.77;;;14.50;99.90;;;;;;4971646;28;20186;-62
2022/06/29 01:14:36;;;;;;;4.17;0.77;;;14.60;99.90;;;;;;4971222;28;20175;-62
2022/06/29 01:17:01;;;;;;;2.08;1.00;;;14.50;99.90;;;;;;4971449;28;20650;-62
2022/06/29 01:19:27;;;;;;;1.58;0.70;;;14.40;99.90;;;;;;4971573;28;20612;-62
2022/06/29 01:21:55;;;;;;;2.43;0.90;;;14.70;99.90;;;;;;4971551;28;20218;-62
2022/06/29 01:24:22;;;;;;;2.00;0.90;;;14.50;99.90;;;;;;4971750;28;20259;-62
2022/06/29 01:26:49;;;;;;;5.45;0.90;;;14.50;99.90;;;;;;4975069;28;20677;-62
2022/06/29 01:29:16;;;;;;;1.67;0.70;;;14.50;99.90;;;;;;4975306;28;20211;-62
2022/06/29 01:31:42;;;;;;;1.60;0.60;;;14.50;99.90;;;;;;4974733;28;20183;-62
2022/06/29 01:34:08;;;;;;;2.85;0.90;;;14.50;99.90;;;;;;4975181;28;20714;-62
2022/06/29 01:36:34;;;;;;;4.68;1.00;;;14.50;99.90;;;;;;4974841;28;20176;-62
2022/06/29 01:39:00;;;;;;;2.05;0.80;;;14.30;99.90;;;;;;4974973;28;20184;-62
2022/06/29 01:41:26;;;;;;;5.20;1.23;;;14.40;99.90;;;;;;4974955;28;20246;-62
2022/06/29 01:43:52;;;;;;;6.93;0.90;;;14.30;99.90;;;;;;4974909;28;20599;-62
2022/06/29 01:46:18;;;;;;;4.57;1.27;;;14.30;99.90;;;;;;4975089;28;20183;-63
2022/06/29 01:48:44;;;;;;;8.02;1.15;;;14.20;99.90;;;;;;4975275;28;20677;-62
2022/06/29 01:51:10;;;;;;;7.53;1.40;;;14.20;99.90;;;;;;4974976;28;20191;-62
2022/06/29 01:53:36;;;;;;;10.65;1.88;;;14.10;99.90;;;;;;4974677;28;20214;-62
2022/06/29 01:56:01;;;;;;;7.63;1.38;;;14.00;99.90;;;;;;4974826;28;20190;-62
2022/06/29 01:58:27;;;;;;;6.18;1.45;;;14.00;99.90;;;;;;4974890;28;20184;-62
2022/06/29 02:00:53;;;;;;;5.50;1.20;;;14.00;99.90;;;;;;4974800;28;20195;-62
2022/06/29 02:03:19;;;;;;;7.55;1.67;;;13.80;99.90;;;;;;4975666;28;20215;-63
2022/06/29 02:05:44;;;;;;;9.80;1.87;;;13.90;99.90;;;;;;4975973;28;20279;-63
2022/06/29 02:08:10;;;;;;;13.32;2.20;;;13.80;99.90;;;;;;4975059;28;20727;-62
2022/06/29 02:10:36;;;;;;;7.80;1.55;;;13.80;99.90;;;;;;4974469;28;20639;-62
2022/06/29 02:13:02;;;;;;;10.32;2.15;;;13.80;99.90;;;;;;4974480;28;20263;-62
2022/06/29 02:15:27;;;;;;;9.65;1.83;;;13.70;99.90;;;;;;4974328;28;20251;-62
2022/06/29 02:17:53;;;;;;;8.57;2.30;;;13.70;99.90;;;;;;4974647;28;20184;-62
2022/06/29 02:20:19;;;;;;;6.38;2.33;;;13.70;99.90;;;;;;4974348;28;20525;-62
2022/06/29 02:22:45;;;;;;;11.60;2.47;;;13.70;99.90;;;;;;4974188;28;20207;-62
2022/06/29 02:25:11;;;;;;;10.37;2.53;;;13.70;99.90;;;;;;4974324;28;20255;-62
2022/06/29 02:27:41;;;;;;;14.60;2.97;;;13.70;99.90;;;;;;4974439;28;20250;-62
2022/06/29 02:30:09;;;;;;;13.20;2.70;;;13.70;99.90;;;;;;4974353;28;20174;-62
2022/06/29 02:35:19;;;;;;;17.23;2.50;;;13.50;99.90;;;;;;4974215;28;20187;-62
2022/06/29 02:37:45;;;;;;;15.37;2.80;;;13.60;99.90;;;;;;4973073;28;20187;-62
2022/06/29 02:40:11;;;;;;;22.43;3.00;;;13.80;99.90;;;;;;4973699;28;20723;-63
2022/06/29 02:42:37;;;;;;;11.35;2.65;;;13.60;99.90;;;;;;4973780;28;20306;-62
2022/06/29 02:45:03;;;;;;;11.25;2.78;;;13.50;99.90;;;;;;4973836;28;20203;-62
2022/06/29 02:47:29;;;;;;;14.53;2.57;;;13.50;99.90;;;;;;4974040;28;20263;-62
2022/06/29 02:49:54;;;;;;;16.73;3.03;;;13.50;99.90;;;;;;4956371;28;20291;-62
2022/06/29 02:52:20;;;;;;;13.60;2.67;;;13.50;99.90;;;;;;4973501;28;20614;-62
2022/06/29 02:54:46;;;;;;;9.85;3.00;;;13.50;99.90;;;;;;4973594;28;20176;-62
2022/06/29 02:57:11;;;;;;;15.87;2.97;;;13.50;99.90;;;;;;4973630;28;20199;-62
2022/06/29 02:59:37;;;;;;;15.13;3.17;;;13.50;99.90;;;;;;4973646;28;20172;-62
2022/06/29 03:02:03;;;;;;;14.65;2.58;;;13.40;99.90;;;;;;4973441;28;20297;-63
2022/06/29 03:04:29;;;;;;;12.60;3.08;;;13.40;99.90;;;;;;4973339;28;20176;-63
2022/06/29 03:06:55;;;;;;;16.85;3.20;;;13.50;99.90;;;;;;4973440;28;20223;-62
2022/06/29 03:09:21;;;;;;;14.38;2.55;;;13.50;99.90;;;;;;4973287;28;20259;-63
2022/06/29 03:11:47;;;;;;;17.23;3.33;;;13.50;99.90;;;;;;4973283;28;20176;-62
2022/06/29 03:14:13;;;;;;;12.30;2.40;;;13.50;99.90;;;;;;4973359;28;20184;-62
2022/06/29 03:16:39;;;;;;;16.17;2.83;;;;;;;;;;4973173;28;20184;-62
2022/06/29 03:19:04;;;;;;;18.55;3.30;;;13.70;99.90;;;;;;4955955;28;20211;-62
2022/06/29 03:21:30;;;;;;;10.73;2.83;;;13.00;99.90;;;;;;4973310;28;20243;-62
2022/06/29 03:23:56;;;;;;;14.35;3.10;;;13.50;99.90;;;;;;4973039;28;20183;-62
2022/06/29 03:26:22;;;;;;;13.23;2.60;;;13.60;99.90;;;;;;4973181;28;20620;-61
2022/06/29 03:28:52;;;;;;;11.80;2.88;;;13.60;99.90;;;;;;4972979;28;20180;-61
2022/06/29 03:31:19;;;;;;;14.13;3.03;;;13.50;99.90;;;;;;4973322;28;20235;-61
2022/06/29 03:33:45;;;;;;;16.65;2.88;;;13.60;99.90;;;;;;4972802;28;20640;-62
2022/06/29 03:36:11;;;;;;;16.40;3.13;;;13.60;99.90;;;;;;4972921;28;20242;-62
2022/06/29 03:38:37;;;;;;;13.70;3.33;;;13.60;99.90;;;;;;4972855;28;20266;-61
2022/06/29 03:41:04;;;;;;;14.20;2.77;;;13.70;99.90;;;;;;4973139;28;20179;-61
2022/06/29 03:43:31;;;;;;;16.25;3.10;;;13.60;99.90;;;;;;4973098;28;20192;-61
2022/06/29 03:45:57;;;;;;;19.80;3.03;;;13.60;99.90;;;;;;4972377;28;20674;-61
2022/06/29 03:48:23;;;;;;;13.30;2.60;;;13.50;99.90;;;;;;4972631;28;20179;-61
2022/06/29 03:50:49;;;;;;;17.30;3.10;;;13.50;99.90;;;;;;4972599;28;20188;-61
2022/06/29 03:53:15;;;;;;;14.20;3.30;;;13.50;99.90;;;;;;4972503;28;20647;-61
2022/06/29 03:55:41;;;;;;;17.63;3.53;;;13.50;99.90;;;;;;4972760;28;20663;-61
2022/06/29 03:58:07;;;;;;;11.82;2.60;;;13.30;99.90;;;;;;4972663;28;20249;-61
2022/06/29 04:00:33;;;;;;;16.08;3.08;;;13.50;99.90;;;;;;4972664;28;20659;-61
2022/06/29 04:02:59;;;;;;;18.07;3.37;;;13.40;99.90;;;;;;4972704;28;20306;-61
2022/06/29 04:05:24;;;;;;;21.20;3.30;;;13.70;99.90;;;;;;4972605;28;20638;-61
2022/06/29 04:07:50;;;;;;;15.75;2.83;;;13.50;99.90;;;;;;4971976;28;20173;-61
2022/06/29 04:10:16;;;;;;;14.70;2.93;;;13.50;99.90;;;;;;4972759;28;20214;-61
2022/06/29 04:12:42;;;;;;;14.45;3.00;;;13.40;99.90;;;;;;4972411;28;20547;-62
2022/06/29 04:15:08;;;;;;;16.83;4.13;;;13.40;99.90;;;;;;4972413;28;20698;-61
2022/06/29 04:17:34;;;;;;;17.05;3.35;;;13.50;99.90;;;;;;4972201;28;20730;-61
2022/06/29 04:20:00;;;;;;;14.13;3.05;;;13.50;99.90;;;;;;4972346;28;20341;-61
2022/06/29 04:22:26;;;;;;;22.50;3.88;;;13.40;99.90;;;;;;4970571;28;20305;-61
2022/06/29 04:24:52;;;;;;;21.92;3.67;;;13.50;99.90;;;;;;4972195;28;20642;-61
2022/06/29 04:27:18;;;;;;;18.67;3.77;;;13.40;99.90;;;;;;4972243;28;20184;-61
2022/06/29 04:29:43;;;;;;;17.13;3.53;;;13.50;99.90;;;;;;4972322;28;20180;-61
2022/06/29 04:32:10;;;;;;;15.63;3.25;;;13.50;99.90;;;;;;4971843;28;20172;-61
2022/06/29 04:34:36;;;;;;;13.80;3.08;;;13.50;99.90;;;;;;4954831;28;21000;-61
2022/06/29 04:37:03;;;;;;;16.03;3.67;;;13.50;99.90;;;;;;4972062;28;20318;-61
2022/06/29 04:39:28;;;;;;;25.73;4.15;;;13.50;99.90;;;;;;4972121;28;20666;-61
2022/06/29 04:41:55;;;;;;;18.67;3.73;;;13.50;99.90;;;;;;4971469;28;20223;-61
2022/06/29 04:44:21;;;;;;;18.70;3.83;;;13.60;99.90;;;;;;4972627;28;20172;-61
2022/06/29 04:46:47;;;;;;;19.00;3.90;;;13.60;99.90;;;;;;4971621;28;20203;-61
2022/06/29 04:49:13;;;;;;;23.38;3.97;;;13.70;99.90;;;;;;4972023;28;20631;-61
2022/06/29 04:51:39;;;;;;;20.93;4.03;;;13.50;99.90;;;;;;4971817;28;20168;-61
2022/06/29 04:54:05;;;;;;;21.90;4.50;;;13.50;99.90;;;;;;4971977;28;20251;-61
2022/06/29 04:56:33;;;;;;;15.40;3.70;;;13.60;99.90;;;;;;4971804;28;20558;-61
2022/06/29 04:59:00;;;;;;;20.53;3.77;;;13.70;99.90;;;;;;4971975;28;20191;-61
2022/06/29 05:01:28;;;;;;;13.73;3.43;;;13.80;99.90;;;;;;4977505;28;22475;-61
2022/06/29 05:03:54;;;;;;;17.92;3.50;;;13.80;99.90;;;;;;4978239;28;20172;-61
2022/06/29 05:06:21;;;;;;;17.83;3.87;;;13.80;99.90;;;;;;4978487;28;20242;-61
2022/06/29 05:08:50;;;;;;;20.60;3.83;;;13.80;99.90;;;;;;4977944;28;20258;-61
2022/06/29 05:11:17;;;;;;;22.52;4.10;;;13.80;99.90;;;;;;4978422;28;20218;-61
2022/06/29 05:13:46;;;;;;;17.48;3.88;;;14.10;99.90;;;;;;4977740;28;20709;-61
2022/06/29 05:16:13;;;;;;;18.23;3.92;;;13.90;99.90;;;;;;4978119;28;20180;-61
2022/06/29 05:18:38;;;;;;;20.35;3.88;;;14.00;99.90;;;;;;4977857;28;20168;-61
2022/06/29 05:21:04;;;;;;;15.75;3.67;;;14.10;99.90;;;;;;4977934;28;20202;-61
2022/06/29 05:23:31;;;;;;;19.60;3.95;;;14.00;99.90;;;;;;4978324;28;20306;-61
2022/06/29 05:25:58;;;;;;;21.23;3.92;;;13.90;99.90;;;;;;4978880;28;20176;-61
2022/06/29 05:28:24;;;;;;;21.67;4.00;;;13.90;99.90;;;;;;4978155;28;20180;-61
2022/06/29 05:30:51;;;;;;;20.05;3.90;;;13.90;99.90;;;;;;4978403;28;20190;-61
2022/06/29 05:33:17;;;;;;;14.32;4.10;;;14.00;99.90;;;;;;4977665;28;20180;-61
2022/06/29 05:35:43;;;;;;;24.77;4.63;;;14.00;99.90;;;;;;4978168;28;20174;-61
2022/06/29 05:38:09;;;;;;;25.25;4.03;;;14.00;99.90;;;;;;4977885;28;20195;-61
2022/06/29 05:40:35;;;;;;;22.38;3.72;;;13.60;99.90;;;;;;4978181;28;20168;-62
2022/06/29 05:43:01;;;;;;;19.03;4.33;;;14.00;99.90;;;;;;4977536;28;20335;-61
2022/06/29 05:45:27;;;;;;;13.50;3.58;;;14.00;99.90;;;;;;4976574;28;20674;-62
2022/06/29 05:47:54;;;;;;;23.45;4.63;;;14.30;99.90;;;;;;4977560;28;20191;-62
2022/06/29 05:50:21;;;;;;;28.42;3.90;;;14.10;99.90;;;;;;4978036;28;20194;-62
2022/06/29 05:52:47;;;;;;;17.52;3.80;;;14.20;99.90;;;;;;4977663;28;20204;-62
2022/06/29 05:55:13;;;;;;;21.75;4.45;;;14.20;99.90;;;;;;4978399;28;20180;-62
2022/06/29 05:57:39;;;;;;;20.67;3.50;;;14.20;99.90;;;;;;4977631;28;20179;-62
2022/06/29 06:00:06;;;;;;;19.77;4.00;;;14.30;99.90;;;;;;4977646;28;20191;-62
2022/06/29 06:02:32;;;;;;;28.17;4.47;;;14.50;99.90;;;;;;4977495;28;20211;-62
2022/06/29 06:04:58;;;;;;;22.70;4.28;;;15.10;99.90;;;;;;4977904;28;20577;-62
2022/06/29 06:07:24;;;;;;;17.08;4.07;;;14.70;99.90;;;;;;4977743;28;20186;-62
2022/06/29 06:09:49;;;;;;;20.73;3.67;;;14.70;99.90;;;;;;4977504;28;20718;-62
2022/06/29 06:12:16;;;;;;;18.23;3.92;;;14.70;99.90;;;;;;4975421;28;20262;-62
2022/06/29 06:14:42;;;;;;;22.67;3.63;;;15.00;99.90;;;;;;4974483;28;20187;-62
2022/06/29 06:17:08;;;;;;;21.33;3.80;;;15.00;99.90;;;;;;4974265;28;20176;-62
2022/06/29 06:19:34;;;;;;;16.20;3.30;;;15.10;99.90;;;;;;4974657;28;20187;-63
2022/06/29 06:22:00;;;;;;;21.00;4.07;;;15.00;99.90;;;;;;4956991;28;20211;-63
2022/06/29 06:24:26;;;;;;;24.10;4.10;;;15.10;99.90;;;;;;4974401;28;20227;-62
2022/06/29 06:26:52;;;;;;;22.73;3.65;;;15.00;99.90;;;;;;4974246;28;22024;-62
2022/06/29 06:29:18;;;;;;;15.32;3.13;;;15.00;99.90;;;;;;4974221;28;20539;-62
2022/06/29 06:31:43;;;;;;;18.90;3.50;;;14.90;99.90;;;;;;4974772;28;20184;-63
2022/06/29 06:34:09;;;;;;;14.82;3.67;;;14.90;99.90;;;;;;4974106;28;20203;-63
2022/06/29 06:36:35;;;;;;;25.38;3.55;;;14.90;99.90;;;;;;4956653;28;20619;-63
2022/06/29 06:39:01;;;;;;;27.80;4.43;;;14.90;99.90;;;;;;4973980;28;20183;-63
2022/06/29 06:41:26;;;;;;;14.70;3.78;;;14.90;99.90;;;;;;4974047;28;20175;-63
2022/06/29 06:43:54;;;;;;;20.05;4.38;;;15.00;99.90;;;;;;4973959;28;20184;-62
2022/06/29 06:46:21;;;;;;;21.23;3.90;;;15.30;99.90;;;;;;4973926;28;20223;-62
2022/06/29 06:48:49;;;;;;;20.05;3.97;;;15.10;99.90;;;;;;4973870;28;20171;-62
2022/06/29 06:51:15;;;;;;;16.85;3.63;;;15.00;99.90;;;;;;4973598;28;20594;-61
2022/06/29 06:53:41;;;;;;;22.85;3.80;;;15.10;99.90;;;;;;4973409;28;20378;-62
2022/06/29 06:56:07;;;;;;;15.98;3.63;;;15.00;99.90;;;;;;4973805;28;20668;-62
2022/06/29 06:58:37;;;;;;;23.42;3.85;;;15.00;99.90;;;;;;4973752;28;20176;-62
2022/06/29 07:01:04;;;;;;;17.55;3.58;;;15.10;99.90;;;;;;4973786;28;20241;-61
2022/06/29 07:03:31;;;;;;;22.83;3.90;;;15.20;99.90;;;;;;4973684;28;20208;-63
2022/06/29 07:05:59;;;;;;;21.92;3.60;;;15.10;99.90;;;;;;4974131;28;20179;-64
2022/06/29 07:08:25;;;;;;;18.08;4.53;;;15.20;99.90;;;;;;4973373;28;20227;-64
2022/06/29 07:10:50;;;;;;;17.80;3.80;;;15.20;99.90;;;;;;4956340;28;20194;-63
2022/06/29 07:13:16;;;;;;;18.33;3.47;;;15.20;99.90;;;;;;4972735;28;20258;-63
2022/06/29 07:15:42;;;;;;;22.38;3.80;;;15.20;99.90;;;;;;4973376;28;20175;-63
2022/06/29 07:18:08;;;;;;;23.92;4.47;;;15.30;99.90;;;;;;4972966;28;20542;-65
2022/06/29 07:20:33;;;;;;;16.98;3.97;;;17.50;99.90;;;;;;4972534;28;20194;-61
2022/06/29 07:22:59;;;;;;;16.80;3.83;;;15.20;99.90;;;;;;4972916;28;20697;-61
2022/06/29 07:25:25;;;;;;;19.05;4.60;;;15.20;99.90;;;;;;4972223;28;20215;-65
2022/06/29 07:27:51;;;;;;;21.15;4.40;;;15.20;99.90;;;;;;4971934;28;20917;-61
2022/06/29 07:30:16;;;;;;;17.30;3.97;;;15.30;99.90;;;;;;4973244;28;20172;-62
2022/06/29 07:32:42;;;;;;;25.48;4.53;;;15.30;99.90;;;;;;4973398;28;20535;-60
2022/06/29 07:35:08;;;;;;;19.75;4.57;;;15.50;99.90;;;;;;4973164;28;20168;-60
2022/06/29 07:37:34;;;;;;;22.42;3.58;;;15.60;99.90;;;;;;4972919;28;20180;-60
2022/06/29 07:40:00;;;;;;;22.80;4.47;;;15.70;99.90;;;;;;4972601;28;20175;-62
2022/06/29 07:42:26;;;;;;;15.55;3.90;;;15.70;99.90;;;;;;4971933;28;20709;-60
2022/06/29 07:44:52;;;;;;;26.58;3.97;;;15.80;99.90;;;;;;4972248;28;20207;-60
2022/06/29 07:47:17;;;;;;;22.88;4.40;;;15.90;99.90;;;;;;4972739;28;20180;-61
2022/06/29 07:49:43;;;;;;;17.27;3.85;;;16.00;99.90;;;;;;4972795;28;20176;-61
2022/06/29 07:52:09;;;;;;;25.92;4.78;;;16.30;99.90;;;;;;4972709;28;20171;-61
2022/06/29 07:54:34;;;;;;;15.60;3.60;;;16.50;99.90;;;;;;4971958;28;20214;-61
2022/06/29 07:57:00;;;;;;;19.02;3.58;;;16.50;99.90;;;;;;4972347;28;20207;-61
2022/06/29 07:59:26;;;;;;;11.77;2.70;;;16.50;99.90;;;;;;4972051;28;20263;-61
2022/06/29 08:01:52;;;;;;;15.68;2.35;;;16.60;99.90;;;;;;4972346;28;20248;-61
2022/06/29 08:04:17;;;;;;;18.30;3.47;;;16.60;99.90;;;;;;4972716;28;20511;-61
2022/06/29 08:06:43;;;;;;;13.88;2.47;;;16.60;99.90;;;;;;4972419;28;20199;-61
2022/06/29 08:09:09;;;;;;;11.93;2.42;;;16.40;99.90;;;;;;4972540;28;20226;-61
2022/06/29 08:11:35;;;;;;;19.00;2.60;;;16.50;99.90;;;;;;4971872;28;20234;-61
2022/06/29 08:14:01;;;;;;;14.48;2.97;;;16.50;99.90;;;;;;4971833;28;20647;-61
2022/06/29 08:16:27;;;;;;;14.77;2.25;;;16.50;99.90;;;;;;4971824;28;20183;-62
2022/06/29 08:18:52;;;;;;;9.48;1.73;;;16.40;99.90;;;;;;4971786;28;20186;-62
2022/06/29 08:21:18;;;;;;;11.13;2.75;;;16.50;99.90;;;;;;4972092;28;20178;-61
2022/06/29 08:23:44;;;;;;;15.20;2.55;;;16.40;99.90;;;;;;4972280;28;20210;-61
2022/06/29 08:26:10;;;;;;;9.10;2.25;;;16.50;99.90;;;;;;4971782;28;20231;-61
2022/06/29 08:28:35;;;;;;;9.05;2.03;;;16.60;99.90;;;;;;4972210;28;20551;-61
2022/06/29 08:31:01;;;;;;;13.20;2.60;;;16.70;99.90;;;;;;4972185;28;20187;-61
2022/06/29 08:33:27;;;;;;;14.23;2.50;;;16.80;99.90;;;;;;4971244;28;20211;-60
2022/06/29 08:35:53;;;;;;;13.98;2.30;;;17.00;99.90;;;;;;4971338;28;20211;-61
2022/06/29 08:38:18;;;;;;;15.65;2.97;;;17.00;99.90;;;;;;4972241;28;20595;-61
2022/06/29 08:40:47;;;;;;;12.13;2.28;;;17.10;99.90;;;;;;4972069;28;20666;-61
2022/06/29 08:43:17;;;;;;;13.52;2.22;;;16.90;99.90;;;;;;4972127;28;20326;-61
2022/06/29 08:45:48;;;;;;;12.52;2.17;;;17.90;99.90;;;;;;4972189;28;20172;-60
2022/06/29 08:48:16;;;;;;;17.33;2.22;;;17.80;99.90;;;;;;4972233;28;20229;-60
2022/06/29 08:50:44;;;;;;;9.43;1.60;;;18.00;99.90;;;;;;4971989;28;20172;-60
2022/06/29 08:53:14;;;;;;;12.43;1.92;;;18.00;99.90;;;;;;4971876;28;20219;-60
2022/06/29 08:55:48;;;;;;;16.20;2.35;;;18.20;99.90;;;;;;4972262;28;20164;-62
2022/06/29 08:58:25;;;;;;;17.10;1.90;;;18.40;99.90;;;;;;4972227;28;20171;-62
2022/06/29 09:00:52;;;;;;;10.70;1.77;;;18.20;99.90;;;;;;4971704;28;20215;-61
2022/06/29 09:03:19;;;;;;;9.23;1.73;;;18.50;99.90;;;;;;4972382;28;20204;-62
2022/06/29 09:05:49;;;;;;;10.18;2.05;;;18.30;99.90;;;;;;4971780;28;20303;-61
2022/06/29 09:08:16;;;;;;;7.50;1.50;;;18.20;99.90;;;;;;4971887;28;20227;-61
2022/06/29 09:10:42;;;;;;;11.38;1.80;;;18.70;99.90;;;;;;4970430;28;20191;-61
2022/06/29 09:13:08;;;;;;;12.95;1.45;;;18.80;99.90;;;;;;4971798;28;20195;-61
2022/06/29 09:15:40;;;;;;;7.82;1.20;;;18.90;99.90;;;;;;4971821;28;20694;-62
2022/06/29 09:18:42;;;;;;;7.45;1.60;;;18.00;99.90;;;;;;4971856;28;20170;-60
2022/06/29 09:21:07;;;;;;;4.55;1.20;;;17.70;99.90;;;;;;4912388;29;20182;-60
2022/06/29 09:23:35;;;;;;;6.85;1.15;;;17.30;99.90;;;;;;4959004;28;20709;-61
2022/06/29 09:26:01;;;;;;;12.68;2.10;;;17.40;99.90;;;;;;4971733;28;20215;-61
2022/06/29 09:28:31;;;;;;;8.75;1.58;;;17.40;99.90;;;;;;4971903;28;20584;-63
2022/06/29 09:30:58;;;;;;;10.77;1.88;;;17.40;99.90;;;;;;4971572;28;20255;-61
2022/06/29 09:33:26;;;;;;;11.45;2.08;;;17.50;99.90;;;;;;4971130;28;20168;-61
2022/06/29 09:36:17;;;;;;;6.18;1.52;;;17.40;99.90;;;;;;4970674;28;20180;-61
2022/06/29 09:38:43;;;;;;;11.95;1.90;;;17.20;99.90;;;;;;4971936;28;20176;-61
2022/06/29 09:41:13;;;;;;;3.20;0.43;;;17.30;99.90;;;;;;4971742;28;20195;-61
2022/06/29 09:43:43;;;;;;;2.95;0.50;;;17.00;99.90;;;;;;4971897;28;20307;-61
2022/06/29 09:46:14;;;;;;;4.05;0.82;;;16.80;99.90;;;;;;4972640;28;20168;-62
2022/06/29 09:48:41;;;;;;;3.33;0.80;;;16.50;99.90;;;;;;4975513;28;20164;-61
2022/06/29 09:54:05;;;;;;;3.22;0.68;;;16.70;99.90;;;;;;4974882;28;20262;-61
2022/06/29 09:56:32;;;;;;;3.53;0.90;;;17.00;99.90;;;;;;4975291;28;20196;-62
2022/06/29 09:58:59;;;;;;;6.60;0.95;;;17.60;99.90;;;;;;4975205;28;20180;-62
2022/06/29 10:04:11;;;;;;;8.02;1.30;;;18.50;99.90;;;;;;4975538;28;20243;-61
2022/06/29 10:06:37;;;;;;;5.43;0.80;;;19.40;99.90;;;;;;4975371;28;20200;-61
2022/06/29 10:09:03;;;;;;;16.00;1.42;;;19.60;99.90;;;;;;4957679;28;20219;-61
2022/06/29 10:14:54;;;;;;;3.40;0.80;;;20.00;99.90;;;;;;4974759;28;20203;-61
2022/06/29 10:17:29;;;;;;;7.55;1.30;;;20.20;99.90;;;;;;4975014;28;20539;-62
2022/06/29 10:20:38;;;;;;;8.32;1.08;;;19.40;99.90;;;;;;4975023;28;20175;-62
2022/06/29 10:23:04;;;;;;;5.50;1.00;;;19.50;99.90;;;;;;4972610;28;20230;-61
2022/06/29 10:25:30;;;;;;;4.80;1.10;;;19.20;99.90;;;;;;4974992;28;20172;-62
2022/06/29 10:28:08;;;;;;;6.72;1.38;;;19.20;99.90;;;;;;4974672;28;20219;-61
2022/06/29 10:30:34;;;;;;;5.57;0.70;;;19.10;99.90;;;;;;4974455;28;20194;-61
2022/06/29 10:33:28;;;;;;;6.95;1.38;;;19.30;99.90;;;;;;4974420;28;20172;-61
2022/06/29 10:36:05;;;;;;;7.90;1.00;;;19.30;99.90;;;;;;4974426;28;20200;-61
2022/06/29 10:38:35;;;;;;;3.13;0.90;;;19.50;99.90;;;;;;4974573;28;20171;-61
2022/06/29 10:43:55;;;;;;;1.17;0.43;;;19.10;99.90;;;;;;4974887;28;20231;-61
2022/06/29 10:46:22;;;;;;;0.88;0.35;;;19.00;99.90;;;;;;4974337;28;20631;-62
2022/06/29 10:49:20;;;;;;;3.20;0.75;;;18.50;99.90;;;;;;4974523;28;20223;-61
2022/06/29 10:51:49;;;;;;;2.78;0.70;;;18.30;99.90;;;;;;4971371;28;20271;-61
2022/06/29 10:54:26;;;;;;;3.20;0.57;;;18.10;99.90;;;;;;4974197;28;20270;-61
2022/06/29 10:56:53;;;;;;;2.17;0.75;;;17.90;99.90;;;;;;4974420;28;20235;-61
2022/06/29 10:59:32;;;;;;;2.85;0.45;;;17.80;99.90;;;;;;4955972;28;20171;-61
2022/06/29 11:02:15;;;;;;;1.38;0.40;;;17.30;99.90;;;;;;4974020;28;20195;-61
2022/06/29 11:04:42;;;;;;;1.63;0.70;;;17.20;99.90;;;;;;4974024;28;20175;-61
2022/06/29 11:12:54;;;;;;;1.75;0.50;;;16.30;99.90;;;;;;4974259;28;20219;-61
2022/06/29 11:15:41;;;;;;;3.75;0.40;;;16.40;99.90;;;;;;4974003;28;20753;-61
2022/06/29 11:18:14;;;;;;;2.55;0.50;;;16.20;99.90;;;;;;4973947;28;20191;-61
2022/06/29 11:20:48;;;;;;;1.90;0.63;;;16.00;99.90;;;;;;4973928;28;20189;-60
2022/06/29 11:23:16;;;;;;;1.98;0.60;;;16.00;99.90;;;;;;4973681;28;20241;-61
2022/06/29 11:25:46;;;;;;;3.55;0.70;;;15.90;99.90;;;;;;4973784;28;20179;-61
2022/06/29 11:28:12;;;;;;;1.65;0.50;;;15.80;99.90;;;;;;4973762;28;20657;-61
2022/06/29 11:30:38;;;;;;;1.70;0.60;;;15.70;99.90;;;;;;4973543;28;20295;-61
2022/06/29 11:33:10;;;;;;;1.48;0.55;;;15.60;99.90;;;;;;4973534;28;20172;-61
2022/06/29 11:35:38;;;;;;;3.97;0.90;;;15.90;99.90;;;;;;4973262;28;20180;-60
2022/06/29 11:38:05;;;;;;;2.67;0.63;;;15.00;99.90;;;;;;4973424;28;20190;-60
2022/06/29 11:40:36;;;;;;;2.58;0.70;;;16.20;99.90;;;;;;4973795;28;20581;-61
2022/06/29 11:43:15;;;;;;;6.13;0.90;;;16.90;99.90;;;;;;4973257;28;20215;-62
2022/06/29 11:45:43;;;;;;;3.17;0.63;;;17.00;99.90;;;;;;4973431;28;20168;-61
2022/06/29 11:48:23;;;;;;;3.63;0.70;;;17.40;99.90;;;;;;4973180;28;20176;-61
2022/06/29 11:51:01;;;;;;;3.13;0.75;;;17.90;99.90;;;;;;4973346;28;20176;-61
2022/06/29 11:53:47;;;;;;;5.68;0.63;;;17.60;99.90;;;;;;4973125;28;20183;-61
2022/06/29 11:56:17;;;;;;;3.97;0.80;;;17.50;99.90;;;;;;4973105;28;20214;-61
2022/06/29 11:58:50;;;;;;;3.40;0.90;;;17.90;99.90;;;;;;4973182;28;20175;-61
2022/06/29 12:01:18;;;;;;;2.67;0.98;;;19.50;99.90;;;;;;4973085;28;20180;-61
2022/06/29 12:03:52;;;;;;;3.88;1.10;;;19.90;99.90;;;;;;4972875;28;20218;-61
2022/06/29 12:06:19;;;;;;;5.88;1.45;;;20.50;99.90;;;;;;4972798;28;20183;-62
2022/06/29 12:08:48;;;;;;;3.47;0.80;;;20.40;99.90;;;;;;4972512;28;20223;-62
2022/06/29 12:11:14;;;;;;;3.85;0.90;;;20.30;99.90;;;;;;4972795;28;20171;-62
2022/06/29 12:13:39;;;;;;;4.82;0.68;;;19.90;99.90;;;;;;4955421;28;20184;-62
2022/06/29 12:16:05;;;;;;;3.35;0.70;;;19.90;99.90;;;;;;4972841;28;20483;-62
2022/06/29 12:18:31;;;;;;;2.53;0.90;;;19.70;99.90;;;;;;4972738;28;20180;-62
2022/06/29 12:20:58;;;;;;;7.38;0.82;;;19.70;99.90;;;;;;4972703;28;20211;-62
2022/06/29 12:23:24;;;;;;;3.83;0.80;;;19.60;99.90;;;;;;4972491;28;20203;-62
2022/06/29 12:25:50;;;;;;;3.53;0.70;;;19.60;99.90;;;;;;4972598;28;20223;-62
2022/06/29 12:28:15;;;;;;;9.32;1.20;;;20.50;99.90;;;;;;4955162;28;20180;-62
2022/06/29 12:30:42;;;;;;;2.53;0.80;;;22.00;99.90;;;;;;4972501;28;20180;-62
2022/06/29 12:33:09;;;;;;;4.00;1.00;;;22.80;99.90;;;;;;4972462;28;20219;-62
2022/06/29 12:35:38;;;;;;;4.53;0.68;;;22.40;99.90;;;;;;4972329;28;20184;-66
2022/06/29 12:38:04;;;;;;;4.28;0.90;;;22.30;99.90;;;;;;4972420;28;20215;-62
2022/06/29 12:40:30;;;;;;;3.10;0.88;;;21.50;99.90;;;;;;4972554;28;20210;-62
2022/06/29 12:42:56;;;;;;;3.58;1.10;;;21.00;99.90;;;;;;4972317;28;20210;-62
2022/06/29 12:45:24;;;;;;;3.85;1.10;;;19.60;99.90;;;;;;4972421;28;20176;-62
2022/06/29 12:47:50;;;;;;;3.78;0.88;;;19.50;99.90;;;;;;4972197;28;20179;-62
2022/06/29 12:50:16;;;;;;;6.75;1.05;;;19.00;99.90;;;;;;4972053;28;20183;-62
2022/06/29 12:52:46;;;;;;;3.45;0.90;;;18.70;99.90;;;;;;4954948;28;20180;-62
2022/06/29 12:55:13;;;;;;;3.83;0.90;;;18.10;99.90;;;;;;4969820;28;20590;-61
2022/06/29 12:57:39;;;;;;;4.30;1.33;;;18.00;99.90;;;;;;4971636;28;20673;-62
2022/06/29 13:00:06;;;;;;;4.43;1.05;;;17.90;99.90;;;;;;4972116;28;20639;-61
2022/06/29 13:02:32;;;;;;;5.43;1.13;;;17.90;99.90;;;;;;4972107;28;20211;-61